Orleans, Nebraska
Current Conditions -  °F | °C
As of 6:55 PM on Wednesday 17 Dec 2014 (Local Time) from KHDE Reporting Station
Overcast Overcast  
Wind Chill: 17°   Ceiling: 1200
Heat Index: 25°   Visibility: 10mi
Dew Point: 22°   Wind: 7mph
Humidity: 89%   Direction: 110°ESE
Pressure: 30.14"   Gusts: NA
Location:  40.13°N, 99.46°W
Report Text: KHDE 180055Z AUTO 11006KT 10SM SCT007 OVC012 M04/M06 A3014 RMK AO2 T10401056
Loading
Personal Weather Stations






























Interactive Weather Map New forecast layout! Learn more

10-Day Weather Forecast

Advertisements
Track Severe Weather on mobile